createdAt,value
2019-01-02T00:08:30.381Z,97208.12
2019-01-02T00:11:20.245Z,97205.98
2019-01-02T00:14:04.629Z,97210.95
2019-01-02T00:16:54.661Z,97222.38
2019-01-02T00:19:37.427Z,97215.25
2019-01-02T00:22:27.536Z,97215.50
2019-01-02T00:25:12.226Z,97217.16
2019-01-02T00:28:02.304Z,97220.82
2019-01-02T00:30:47.515Z,97223.27
2019-01-02T00:36:41.648Z,97223.05
2019-01-02T00:39:27.037Z,97226.05
2019-01-02T00:42:17.731Z,97227.19
2019-01-02T00:50:50.605Z,97229.55
2019-01-02T00:53:40.995Z,97224.16
2019-01-02T00:56:31.153Z,97223.27
2019-01-02T00:59:16.895Z,97225.84
2019-01-02T01:02:00.355Z,97213.78
2019-01-02T01:05:10.628Z,97219.34
2019-01-02T01:07:56.071Z,97215.43
2019-01-02T01:14:07.021Z,97231.40
2019-01-02T01:16:56.851Z,97236.00
2019-01-02T01:19:47.069Z,97250.41
2019-01-02T01:22:31.938Z,97228.14
2019-01-02T01:25:21.806Z,97251.05
2019-01-02T01:28:11.537Z,97267.39
2019-01-02T01:30:53.725Z,97270.03
2019-01-02T01:33:43.803Z,97281.84
2019-01-02T01:36:35.281Z,97293.26
2019-01-02T01:39:17.889Z,97286.08
2019-01-02T01:42:08.017Z,97296.87
2019-01-02T01:44:50.335Z,97300.55
2019-01-02T01:47:40.649Z,97291.92
2019-01-02T01:50:24.910Z,97278.59
2019-01-02T01:53:14.971Z,97270.19
2019-01-02T01:58:56.766Z,97283.56
2019-01-02T02:01:59.451Z,97280.66
2019-01-02T02:04:41.833Z,97264.69
2019-01-02T02:07:31.965Z,97272.73
2019-01-02T02:10:16.551Z,97271.53
2019-01-02T02:13:06.307Z,97278.55
2019-01-02T02:15:48.958Z,97284.27
2019-01-02T02:18:38.870Z,97276.59
2019-01-02T02:21:28.695Z,97276.01
2019-01-02T02:24:13.443Z,97271.41
2019-01-02T02:27:03.223Z,97264.80
2019-01-02T02:29:53.642Z,97274.30
2019-01-02T02:32:36.606Z,97272.95
2019-01-02T02:35:26.425Z,97273.60
2019-01-02T02:38:10.861Z,97272.40
2019-01-02T02:41:01.586Z,97269.41
2019-01-02T02:44:03.365Z,97262.53
2019-01-02T02:46:45.633Z,97256.82
2019-01-02T02:49:35.805Z,97259.37
2019-01-02T02:52:17.970Z,97265.95
2019-01-02T02:55:09.315Z,97283.07
2019-01-02T02:57:51.972Z,97277.13
2019-01-02T03:00:42.011Z,97288.46
2019-01-02T03:03:26.519Z,97270.88
2019-01-02T03:06:16.533Z,97289.26
2019-01-02T03:08:58.711Z,97272.66
2019-01-02T03:11:48.497Z,97285.03
2019-01-02T03:14:30.929Z,97287.66
2019-01-02T03:20:16.269Z,97285.36
2019-01-02T03:23:06.045Z,97275.20
2019-01-02T03:25:50.847Z,97265.41
2019-01-02T03:28:34.307Z,97281.86
2019-01-02T03:31:24.517Z,97275.20
2019-01-02T03:34:08.840Z,97272.66
2019-01-02T03:40:02.452Z,97272.08
2019-01-02T03:42:45.284Z,97267.23
2019-01-02T03:45:35.198Z,97266.87
2019-01-02T03:48:27.988Z,97244.95
2019-01-02T03:51:17.848Z,97256.05
2019-01-02T03:54:07.828Z,97255.60
2019-01-02T03:56:57.868Z,97269.40
2019-01-02T04:00:01.602Z,97269.02
2019-01-02T04:05:43.588Z,97258.42
2019-01-02T04:08:33.706Z,97274.69
2019-01-02T04:14:22.038Z,97249.43
2019-01-02T04:17:04.153Z,97275.97
2019-01-02T04:19:53.960Z,97281.76
2019-01-02T04:25:47.636Z,97291.30
2019-01-02T04:28:30.659Z,97306.53
2019-01-02T04:31:20.456Z,97299.48
2019-01-02T04:34:10.322Z,97311.46
2019-01-02T04:37:00.149Z,97318.41
2019-01-02T04:39:50.016Z,97306.75
2019-01-02T04:42:40.099Z,97319.11
2019-01-02T04:45:29.993Z,97319.63
2019-01-02T04:48:19.794Z,97311.49
2019-01-02T04:51:10.257Z,97331.78
2019-01-02T04:53:53.239Z,97335.70
2019-01-02T04:56:43.044Z,97322.82
2019-01-02T04:59:33.155Z,97333.52
2019-01-02T05:02:23.118Z,97316.67
2019-01-02T05:05:12.899Z,97348.07
2019-01-02T05:10:55.944Z,97324.91
2019-01-02T05:13:45.857Z,97333.92
2019-01-02T05:16:35.757Z,97342.17
2019-01-02T05:19:25.685Z,97337.52
2019-01-02T05:22:15.450Z,97350.05
2019-01-02T05:25:05.471Z,97329.56
2019-01-02T05:27:55.275Z,97350.05
2019-01-02T05:30:37.793Z,97343.45
2019-01-02T05:33:27.640Z,97346.27
2019-01-02T05:36:17.636Z,97344.38
2019-01-02T05:39:08.979Z,97346.50
2019-01-02T05:41:58.930Z,97363.77
2019-01-02T05:44:48.743Z,97360.23
2019-01-02T05:51:01.291Z,97381.64
2019-01-02T05:53:43.749Z,97380.23
2019-01-02T05:56:33.773Z,97392.58
2019-01-02T05:59:23.677Z,97407.07
2019-01-02T06:02:32.614Z,97407.84
2019-01-02T06:05:15.334Z,97413.64
2019-01-02T06:08:05.529Z,97419.14
2019-01-02T06:16:40.948Z,97430.70
2019-01-02T06:19:24.049Z,97430.58
2019-01-02T06:22:13.839Z,97428.66
2019-01-02T06:25:03.672Z,97435.97
2019-01-02T06:27:53.514Z,97435.77
2019-01-02T06:30:43.622Z,97436.95
2019-01-02T06:33:33.613Z,97433.72
2019-01-02T06:36:23.391Z,97430.98
2019-01-02T06:39:13.193Z,97443.02
2019-01-02T06:42:03.002Z,97444.86
2019-01-02T06:44:53.079Z,97448.81
2019-01-02T06:50:46.727Z,97437.80
2019-01-02T06:53:32.218Z,97436.61
2019-01-02T06:56:14.557Z,97424.67
2019-01-02T06:59:04.512Z,97429.14
2019-01-02T07:02:13.355Z,97439.90
2019-01-02T07:05:03.137Z,97420.64
2019-01-02T07:07:46.977Z,97447.42
2019-01-02T07:10:36.767Z,97442.92
2019-01-02T07:13:26.553Z,97445.16
2019-01-02T07:16:16.398Z,97453.97
2019-01-02T07:19:06.373Z,97459.44
2019-01-02T07:21:56.148Z,97453.59
2019-01-02T07:27:29.762Z,97449.98
2019-01-02T07:30:21.980Z,97457.03
2019-01-02T07:33:04.332Z,97462.75
2019-01-02T07:42:54.135Z,97467.06
2019-01-02T07:54:55.713Z,97488.55
2019-01-02T08:08:22.308Z,97503.19
2019-01-02T08:18:26.910Z,97515.51
2019-01-02T08:24:17.352Z,97508.17
2019-01-02T08:27:22.133Z,97509.55
2019-01-02T08:30:30.953Z,97520.98
2019-01-02T08:39:36.032Z,97525.04
2019-01-02T08:46:04.537Z,97518.69
2019-01-02T08:49:08.956Z,97521.42
2019-01-02T08:52:10.835Z,97521.63
2019-01-02T08:55:29.683Z,97505.50
2019-01-02T08:58:57.675Z,97504.00
2019-01-02T09:02:14.779Z,97509.83
2019-01-02T09:05:42.710Z,97508.55
2019-01-02T09:11:33.304Z,97519.08
2019-01-02T09:15:01.217Z,97525.92
2019-01-02T09:18:05.693Z,97525.22
2019-01-02T09:24:06.893Z,97530.13
2019-01-02T09:27:15.400Z,97535.45
2019-01-02T09:30:43.364Z,97532.16
2019-01-02T09:33:36.310Z,97548.13
2019-01-02T09:37:04.196Z,97542.17
2019-01-02T09:43:06.608Z,97554.09
2019-01-02T09:45:55.872Z,97553.20
2019-01-02T09:49:23.844Z,97564.02
2019-01-02T09:52:52.542Z,97561.91
2019-01-02T09:55:54.330Z,97557.90
2019-01-02T09:59:22.226Z,97549.27
2019-01-02T10:02:50.124Z,97554.05
2019-01-02T10:06:04.267Z,97550.33
2019-01-02T10:09:32.760Z,97545.69
2019-01-02T10:12:49.592Z,97532.23
2019-01-02T10:16:17.523Z,97550.02
2019-01-02T10:19:19.704Z,97555.11
2019-01-02T10:22:47.618Z,97557.92
2019-01-02T10:25:38.660Z,97553.33
2019-01-02T10:39:55.769Z,97545.26
2019-01-02T10:43:00.894Z,97537.05
2019-01-02T10:46:31.900Z,97536.69
2019-01-02T10:49:33.339Z,97525.24
2019-01-02T10:53:01.276Z,97515.81
2019-01-02T10:56:09.638Z,97509.97
2019-01-02T10:59:37.560Z,97506.47
2019-01-02T11:06:27.754Z,97500.25
2019-01-02T11:09:18.147Z,97498.91
2019-01-02T11:15:11.720Z,97486.77
2019-01-02T11:18:42.990Z,97482.95
2019-01-02T11:21:38.269Z,97487.80
2019-01-02T11:25:06.195Z,97479.59
2019-01-02T11:28:07.740Z,97473.70
2019-01-02T11:31:28.507Z,97478.73
2019-01-02T11:34:59.043Z,97478.22
2019-01-02T11:38:02.262Z,97472.89
2019-01-02T11:40:56.004Z,97473.88
2019-01-02T11:44:07.227Z,97465.08
2019-01-02T11:46:50.053Z,97459.72
2019-01-02T11:49:34.225Z,97457.26
2019-01-02T11:52:24.188Z,97441.50
2019-01-02T11:55:29.701Z,97453.99
2019-01-02T11:58:12.279Z,97454.49
2019-01-02T12:01:02.078Z,97463.66
2019-01-02T12:03:44.405Z,97457.41
2019-01-02T12:06:34.400Z,97455.64
2019-01-02T12:09:18.605Z,97449.17
2019-01-02T12:15:07.710Z,97446.84
2019-01-02T12:17:54.051Z,97448.78
2019-01-02T12:20:36.867Z,97444.30
2019-01-02T12:23:26.692Z,97439.40
2019-01-02T12:26:16.683Z,97442.64
2019-01-02T12:29:06.515Z,97433.83
2019-01-02T12:34:52.581Z,97439.52
2019-01-02T12:37:42.285Z,97433.34
2019-01-02T12:40:24.901Z,97432.63
2019-01-02T12:43:14.857Z,97424.27
2019-01-02T12:48:55.062Z,97425.06
2019-01-02T12:51:44.976Z,97410.79
2019-01-02T12:54:34.804Z,97417.00
2019-01-02T12:57:25.305Z,97409.42
2019-01-02T13:00:15.272Z,97412.33
2019-01-02T13:03:43.086Z,97414.29
2019-01-02T13:06:44.623Z,97413.27
2019-01-02T13:10:12.760Z,97417.13
2019-01-02T13:13:20.192Z,97424.78
2019-01-02T13:16:48.050Z,97419.44
2019-01-02T13:19:34.626Z,97418.04
2019-01-02T13:23:02.504Z,97413.56
2019-01-02T13:26:04.127Z,97414.14
2019-01-02T13:29:31.982Z,97417.07
2019-01-02T13:32:40.358Z,97420.95
2019-01-02T13:35:58.260Z,97420.72
2019-01-02T13:38:42.802Z,97423.88
2019-01-02T13:42:10.692Z,97422.05
2019-01-02T13:45:11.964Z,97416.23
2019-01-02T13:48:39.811Z,97421.03
2019-01-02T13:51:27.496Z,97423.13
2019-01-02T13:54:17.278Z,97431.20
2019-01-02T13:56:59.795Z,97412.00
2019-01-02T13:59:49.532Z,97417.13
2019-01-02T14:02:32.382Z,97431.87
2019-01-02T14:05:23.578Z,97408.80
2019-01-02T14:08:06.254Z,97416.19
2019-01-02T14:10:56.010Z,97401.72
2019-01-02T14:13:40.505Z,97433.62
2019-01-02T14:16:30.268Z,97434.28
2019-01-02T14:19:12.428Z,97430.25
2019-01-02T14:22:02.213Z,97434.71
2019-01-02T14:24:44.408Z,97433.15
2019-01-02T14:27:34.400Z,97420.72
2019-01-02T14:30:17.546Z,97444.34
2019-01-02T14:33:07.270Z,97438.41
2019-01-02T14:35:49.848Z,97443.66
2019-01-02T14:38:40.486Z,97439.14
2019-01-02T14:41:22.710Z,97446.75
2019-01-02T14:44:12.812Z,97447.83
2019-01-02T14:46:54.954Z,97435.16
2019-01-02T14:55:39.790Z,97455.67
2019-01-02T14:58:24.024Z,97458.37
2019-01-02T15:04:24.563Z,97463.69
2019-01-02T15:07:14.377Z,97472.77
2019-01-02T15:09:56.970Z,97473.76
2019-01-02T15:12:46.743Z,97467.37
2019-01-02T15:15:30.651Z,97473.25
2019-01-02T15:18:20.442Z,97476.38
2019-01-02T15:21:04.823Z,97474.83
2019-01-02T15:23:54.745Z,97483.20
2019-01-02T15:26:38.657Z,97492.41
2019-01-02T15:29:28.501Z,97487.95
2019-01-02T15:32:11.183Z,97489.97
2019-01-02T15:35:00.975Z,97498.22
2019-01-02T15:37:43.548Z,97501.34
2019-01-02T15:40:33.496Z,97499.72
2019-01-02T15:43:16.265Z,97504.99
2019-01-02T15:46:06.039Z,97501.39
2019-01-02T15:48:48.728Z,97500.64
2019-01-02T15:51:38.622Z,97504.56
2019-01-02T15:54:20.977Z,97505.42
2019-01-02T15:57:12.089Z,97510.27
2019-01-02T15:59:55.087Z,97516.11
2019-01-02T16:02:44.867Z,97522.58
2019-01-02T16:05:27.443Z,97517.73
2019-01-02T16:08:17.345Z,97517.45
2019-01-02T16:10:59.615Z,97528.80
2019-01-02T16:13:49.355Z,97529.52
2019-01-02T16:16:31.944Z,97532.41
2019-01-02T16:19:21.698Z,97528.05
2019-01-02T16:22:04.175Z,97552.77
2019-01-02T16:24:54.235Z,97553.23
2019-01-02T16:27:36.977Z,97543.27
2019-01-02T16:30:26.727Z,97548.39
2019-01-02T16:33:09.601Z,97547.61
2019-01-02T16:35:59.459Z,97546.11
2019-01-02T16:38:42.055Z,97539.82
2019-01-02T16:41:31.903Z,97543.34
2019-01-02T16:44:14.801Z,97542.95
2019-01-02T16:47:04.835Z,97556.39
2019-01-02T16:49:54.615Z,97552.33
2019-01-02T16:52:37.481Z,97562.31
2019-01-02T16:55:08.201Z,97565.91
2019-01-02T16:57:57.995Z,97571.72
2019-01-02T17:00:40.545Z,97543.81
2019-01-02T17:03:30.575Z,97573.23
2019-01-02T17:06:20.418Z,97574.43
2019-01-02T17:09:10.253Z,97574.73
2019-01-02T17:12:00.100Z,97578.59
2019-01-02T17:14:49.945Z,97577.42
2019-01-02T17:17:33.017Z,97585.58
2019-01-02T17:20:22.823Z,97585.80
2019-01-02T17:23:05.229Z,97587.33
2019-01-02T17:26:14.149Z,97592.09
2019-01-02T17:29:03.978Z,97570.11
2019-01-02T17:31:53.845Z,97592.15
2019-01-02T17:35:02.769Z,97588.61
2019-01-02T17:37:44.825Z,97594.52
2019-01-02T17:40:34.663Z,97579.02
2019-01-02T17:43:24.579Z,97593.43
2019-01-02T17:46:14.433Z,97614.75
2019-01-02T17:49:04.231Z,97608.28
2019-01-02T17:51:46.493Z,97624.53
2019-01-02T17:54:36.794Z,97614.63
2019-01-02T17:57:27.773Z,97615.98
2019-01-02T18:00:18.615Z,97628.06
2019-01-02T18:03:06.892Z,97626.63
2019-01-02T18:05:49.098Z,97634.52
2019-01-02T18:08:38.998Z,97633.93
2019-01-02T18:11:41.896Z,97636.92
2019-01-02T18:14:24.406Z,97639.98
2019-01-02T18:17:14.515Z,97626.63
2019-01-02T18:19:56.447Z,97628.55
2019-01-02T18:22:46.226Z,97636.80
2019-01-02T18:25:28.212Z,97659.25
2019-01-02T18:28:17.981Z,97666.16
2019-01-02T18:31:00.746Z,97674.44
2019-01-02T18:33:50.580Z,97677.37
2019-01-02T18:36:32.810Z,97691.84
2019-01-02T18:39:22.781Z,97690.13
2019-01-02T18:42:05.724Z,97695.08
2019-01-02T18:45:14.637Z,97690.13
2019-01-02T18:47:59.285Z,97691.58
2019-01-02T18:50:49.094Z,97701.75
2019-01-02T18:57:01.349Z,97699.94
2019-01-02T18:59:51.219Z,97699.67
2019-01-02T19:02:33.781Z,97706.19
2019-01-02T19:10:54.935Z,97703.03
2019-01-02T19:13:44.737Z,97708.53
2019-01-02T19:16:27.707Z,97713.88
2019-01-02T19:19:17.567Z,97713.56
2019-01-02T19:22:07.455Z,97708.12
2019-01-02T19:24:57.624Z,97714.20
2019-01-02T19:27:47.441Z,97696.91
2019-01-02T19:30:37.298Z,97716.69
2019-01-02T19:33:20.589Z,97722.64
2019-01-02T19:46:14.636Z,97730.27
2019-01-02T19:55:05.714Z,97735.63
2019-01-02T19:57:48.082Z,97740.53
2019-01-02T20:03:33.741Z,97716.59
2019-01-02T20:06:19.098Z,97744.28
2019-01-02T20:09:03.862Z,97742.73
2019-01-02T20:11:47.210Z,97748.09
2019-01-02T20:14:36.934Z,97756.50
2019-01-02T20:17:20.968Z,97758.84
2019-01-02T20:26:31.565Z,97761.54
2019-01-02T20:29:20.810Z,97759.17
2019-01-02T20:32:07.300Z,97758.44
2019-01-02T20:35:16.628Z,97764.65
2019-01-02T20:37:47.984Z,97762.53
2019-01-02T20:40:55.162Z,97764.18
2019-01-02T20:43:27.703Z,97758.09
2019-01-02T20:46:18.426Z,97763.35
2019-01-02T20:49:03.788Z,97756.46
2019-01-02T20:52:32.373Z,97734.80
2019-01-02T20:55:18.457Z,97757.39
2019-01-02T20:58:08.736Z,97750.73
2019-01-02T21:00:58.855Z,97749.30
2019-01-02T21:06:49.234Z,97760.11
2019-01-02T21:09:41.588Z,97762.31
2019-01-02T21:12:26.119Z,97759.59
2019-01-02T21:20:45.762Z,97741.56
2019-01-02T21:23:37.864Z,97761.80
2019-01-02T21:26:23.531Z,97762.82
2019-01-02T21:28:54.334Z,97764.19
2019-01-02T21:31:25.607Z,97767.33
2019-01-02T21:34:15.802Z,97776.66
2019-01-02T21:37:04.220Z,97766.92
2019-01-02T21:39:35.048Z,97766.81
2019-01-02T21:54:26.674Z,97775.83
2019-01-02T21:57:16.505Z,97746.81
2019-01-02T21:59:59.020Z,97767.19
2019-01-02T22:02:48.820Z,97766.63
2019-01-02T22:05:31.300Z,97772.45
2019-01-02T22:08:21.346Z,97765.09
2019-01-02T22:11:03.600Z,97760.59
2019-01-02T22:13:53.348Z,97768.02
2019-01-02T22:16:35.714Z,97765.37
2019-01-02T22:19:25.848Z,97763.56
2019-01-02T22:22:09.116Z,97767.86
2019-01-02T22:24:59.618Z,97751.70
2019-01-02T22:27:43.960Z,97771.44
2019-01-02T22:30:33.750Z,97772.47
2019-01-02T22:33:16.224Z,97772.78
2019-01-02T22:36:20.027Z,97773.61
2019-01-02T22:38:52.180Z,97777.56
2019-01-02T22:41:42.644Z,97780.56
2019-01-02T22:44:29.540Z,97779.85
2019-01-02T22:47:19.593Z,97777.97
2019-01-02T22:50:02.446Z,97761.86
2019-01-02T22:52:52.672Z,97792.02
2019-01-02T22:55:36.262Z,97779.69
2019-01-02T22:58:26.278Z,97791.13
2019-01-02T23:01:18.053Z,97786.04
2019-01-02T23:04:26.790Z,97791.05
2019-01-02T23:07:29.765Z,97792.47
2019-01-02T23:10:40.038Z,97769.07
2019-01-02T23:13:44.369Z,97792.02
2019-01-02T23:16:53.318Z,97794.52
2019-01-02T23:26:11.355Z,97773.91
2019-01-02T23:29:20.297Z,97796.16
2019-01-02T23:32:47.974Z,97802.34
2019-01-02T23:35:56.205Z,97790.47
2019-01-02T23:39:04.835Z,97803.95
2019-01-02T23:42:13.513Z,97812.79
2019-01-02T23:45:22.589Z,97808.53
2019-01-02T23:54:17.421Z,97789.23
2019-01-02T23:57:27.377Z,97813.25
